sensor_id;sensor_type;location;lat;lon;timestamp;pressure;altitude;pressure_sealevel;temperature;humidity
8641;BME280;4358;42.100;25.222;2023-02-15T00:01:56;101378.22;;;2.81;100.00
8641;BME280;4358;42.100;25.222;2023-02-15T00:04:25;101380.78;;;2.86;100.00
8641;BME280;4358;42.100;25.222;2023-02-15T00:07:13;101386.06;;;2.83;100.00
8641;BME280;4358;42.100;25.222;2023-02-15T00:09:39;101386.16;;;2.77;100.00
8641;BME280;4358;42.100;25.222;2023-02-15T00:12:08;101390.53;;;2.75;100.00
8641;BME280;4358;42.100;25.222;2023-02-15T00:14:35;101395.00;;;2.67;100.00
8641;BME280;4358;42.100;25.222;2023-02-15T00:17:02;101402.53;;;2.10;100.00
8641;BME280;4358;42.100;25.222;2023-02-15T00:19:29;101405.97;;;2.18;100.00
8641;BME280;4358;42.100;25.222;2023-02-15T00:21:56;101402.41;;;2.24;100.00
8641;BME280;4358;42.100;25.222;2023-02-15T00:24:22;101406.78;;;2.25;100.00
8641;BME280;4358;42.100;25.222;2023-02-15T00:26:49;101402.44;;;2.22;100.00
8641;BME280;4358;42.100;25.222;2023-02-15T00:29:18;101410.28;;;2.21;100.00
8641;BME280;4358;42.100;25.222;2023-02-15T00:31:46;101409.47;;;2.17;100.00
8641;BME280;4358;42.100;25.222;2023-02-15T00:34:15;101413.00;;;2.13;100.00
8641;BME280;4358;42.100;25.222;2023-02-15T00:36:42;101410.38;;;2.13;100.00
8641;BME280;4358;42.100;25.222;2023-02-15T00:39:09;101413.81;;;2.17;100.00
8641;BME280;4358;42.100;25.222;2023-02-15T00:41:36;101412.09;;;2.16;100.00
8641;BME280;4358;42.100;25.222;2023-02-15T00:44:04;101407.84;;;2.04;100.00
8641;BME280;4358;42.100;25.222;2023-02-15T00:46:32;101400.91;;;1.94;100.00
8641;BME280;4358;42.100;25.222;2023-02-15T00:48:59;101418.41;;;1.92;100.00
8641;BME280;4358;42.100;25.222;2023-02-15T00:51:26;101411.47;;;1.85;100.00
8641;BME280;4358;42.100;25.222;2023-02-15T00:53:53;101410.59;;;1.87;100.00
8641;BME280;4358;42.100;25.222;2023-02-15T00:56:20;101408.00;;;1.83;100.00
8641;BME280;4358;42.100;25.222;2023-02-15T00:58:48;101401.91;;;1.82;100.00
8641;BME280;4358;42.100;25.222;2023-02-15T01:01:16;101399.38;;;1.68;100.00
8641;BME280;4358;42.100;25.222;2023-02-15T01:03:45;101403.69;;;1.77;100.00
8641;BME280;4358;42.100;25.222;2023-02-15T01:06:13;101396.72;;;1.73;100.00
8641;BME280;4358;42.100;25.222;2023-02-15T01:08:40;101399.28;;;1.81;100.00
8641;BME280;4358;42.100;25.222;2023-02-15T01:11:09;101390.63;;;1.69;100.00
8641;BME280;4358;42.100;25.222;2023-02-15T01:13:36;101381.91;;;1.67;100.00
8641;BME280;4358;42.100;25.222;2023-02-15T01:16:04;101385.44;;;1.63;100.00
8641;BME280;4358;42.100;25.222;2023-02-15T01:18:31;101394.16;;;1.65;100.00
8641;BME280;4358;42.100;25.222;2023-02-15T01:21:00;101376.69;;;1.70;100.00
8641;BME280;4358;42.100;25.222;2023-02-15T01:23:26;101386.28;;;1.70;100.00
8641;BME280;4358;42.100;25.222;2023-02-15T01:25:53;101381.06;;;1.67;100.00
8641;BME280;4358;42.100;25.222;2023-02-15T01:28:20;101383.63;;;1.75;100.00
8641;BME280;4358;42.100;25.222;2023-02-15T01:30:47;101373.09;;;1.81;100.00
8641;BME280;4358;42.100;25.222;2023-02-15T01:33:14;101380.03;;;1.85;100.00
8641;BME280;4358;42.100;25.222;2023-02-15T01:35:44;101373.97;;;1.83;100.00
8641;BME280;4358;42.100;25.222;2023-02-15T01:38:13;101374.81;;;1.85;100.00
8641;BME280;4358;42.100;25.222;2023-02-15T01:40:40;101370.41;;;1.93;100.00
8641;BME280;4358;42.100;25.222;2023-02-15T01:43:09;101370.44;;;1.88;100.00
8641;BME280;4358;42.100;25.222;2023-02-15T01:45:37;101333.09;;;1.66;100.00
8641;BME280;4358;42.100;25.222;2023-02-15T01:48:06;101351.38;;;1.73;100.00
8641;BME280;4358;42.100;25.222;2023-02-15T01:50:41;101367.91;;;1.78;100.00
8641;BME280;4358;42.100;25.222;2023-02-15T01:53:15;101369.56;;;1.85;100.00
8641;BME280;4358;42.100;25.222;2023-02-15T01:55:47;101383.56;;;1.81;100.00
8641;BME280;4358;42.100;25.222;2023-02-15T01:58:15;101387.34;;;1.37;100.00
8641;BME280;4358;42.100;25.222;2023-02-15T02:00:43;101384.00;;;1.20;100.00
8641;BME280;4358;42.100;25.222;2023-02-15T02:03:10;101394.63;;;0.70;100.00
8641;BME280;4358;42.100;25.222;2023-02-15T02:05:38;101394.66;;;0.65;100.00
8641;BME280;4358;42.100;25.222;2023-02-15T02:08:06;101396.41;;;0.60;100.00
8641;BME280;4358;42.100;25.222;2023-02-15T02:10:36;101397.22;;;0.80;100.00
8641;BME280;4358;42.100;25.222;2023-02-15T02:13:05;101405.06;;;0.83;100.00
8641;BME280;4358;42.100;25.222;2023-02-15T02:15:38;101396.31;;;0.91;100.00
8641;BME280;4358;42.100;25.222;2023-02-15T02:18:18;101399.75;;;1.02;100.00
8641;BME280;4358;42.100;25.222;2023-02-15T02:21:10;101401.50;;;1.04;100.00
8641;BME280;4358;42.100;25.222;2023-02-15T02:23:56;101411.03;;;1.11;100.00
8641;BME280;4358;42.100;25.222;2023-02-15T02:35:38;101401.56;;;0.81;100.00
8641;BME280;4358;42.100;25.222;2023-02-15T02:38:11;101390.34;;;0.46;100.00
8641;BME280;4358;42.100;25.222;2023-02-15T02:41:07;101398.19;;;0.38;100.00
8641;BME280;4358;42.100;25.222;2023-02-15T02:43:42;101399.13;;;-0.17;100.00
8641;BME280;4358;42.100;25.222;2023-02-15T02:46:16;101395.59;;;-0.54;100.00
8641;BME280;4358;42.100;25.222;2023-02-15T02:48:48;101401.69;;;-0.48;100.00
8641;BME280;4358;42.100;25.222;2023-02-15T02:51:17;101404.28;;;-0.46;100.00
8641;BME280;4358;42.100;25.222;2023-02-15T02:53:49;101411.25;;;-0.36;100.00
8641;BME280;4358;42.100;25.222;2023-02-15T02:56:21;101402.56;;;-0.29;100.00
8641;BME280;4358;42.100;25.222;2023-02-15T02:58:56;101401.72;;;-0.28;100.00
8641;BME280;4358;42.100;25.222;2023-02-15T03:01:27;101413.88;;;-0.24;100.00
8641;BME280;4358;42.100;25.222;2023-02-15T03:03:58;101417.38;;;-0.22;100.00
8641;BME280;4358;42.100;25.222;2023-02-15T03:06:32;101408.66;;;-0.24;100.00
8641;BME280;4358;42.100;25.222;2023-02-15T03:09:03;101419.09;;;-0.15;100.00
8641;BME280;4358;42.100;25.222;2023-02-15T03:11:32;101424.34;;;-0.09;100.00
8641;BME280;4358;42.100;25.222;2023-02-15T03:13:59;101435.63;;;-0.05;100.00
8641;BME280;4358;42.100;25.222;2023-02-15T03:16:26;101432.19;;;-0.06;100.00
8641;BME280;4358;42.100;25.222;2023-02-15T03:18:56;101432.19;;;0.04;100.00
8641;BME280;4358;42.100;25.222;2023-02-15T03:21:32;101430.41;;;0.06;100.00
8641;BME280;4358;42.100;25.222;2023-02-15T03:24:05;101424.34;;;0.10;100.00
8641;BME280;4358;42.100;25.222;2023-02-15T03:26:34;101419.97;;;0.01;100.00
8641;BME280;4358;42.100;25.222;2023-02-15T03:29:03;101420.84;;;-0.05;100.00
8641;BME280;4358;42.100;25.222;2023-02-15T03:31:35;101419.13;;;-0.01;100.00
8641;BME280;4358;42.100;25.222;2023-02-15T03:34:07;101413.91;;;-0.12;100.00
8641;BME280;4358;42.100;25.222;2023-02-15T03:36:41;101428.69;;;0.03;100.00
8641;BME280;4358;42.100;25.222;2023-02-15T03:39:13;101425.22;;;0.03;100.00
8641;BME280;4358;42.100;25.222;2023-02-15T03:41:48;101429.56;;;-0.06;100.00
8641;BME280;4358;42.100;25.222;2023-02-15T03:44:20;101423.47;;;0.02;100.00
8641;BME280;4358;42.100;25.222;2023-02-15T03:46:54;101438.25;;;0.03;100.00
8641;BME280;4358;42.100;25.222;2023-02-15T03:49:24;101452.19;;;-0.11;100.00
8641;BME280;4358;42.100;25.222;2023-02-15T03:51:56;101427.81;;;-0.07;100.00
8641;BME280;4358;42.100;25.222;2023-02-15T03:54:26;101441.75;;;0.09;100.00
8641;BME280;4358;42.100;25.222;2023-02-15T03:57:11;101442.59;;;0.17;100.00
8641;BME280;4358;42.100;25.222;2023-02-15T03:59:56;101441.75;;;0.08;100.00
8641;BME280;4358;42.100;25.222;2023-02-15T04:02:50;101442.63;;;-0.01;100.00
8641;BME280;4358;42.100;25.222;2023-02-15T04:05:19;101440.00;;;-0.03;100.00
8641;BME280;4358;42.100;25.222;2023-02-15T04:07:47;101453.06;;;-0.03;100.00
8641;BME280;4358;42.100;25.222;2023-02-15T04:10:14;101455.69;;;-0.01;100.00
8641;BME280;4358;42.100;25.222;2023-02-15T04:12:58;101454.78;;;-0.18;100.00
8641;BME280;4358;42.100;25.222;2023-02-15T04:15:25;101436.53;;;-0.17;100.00
8641;BME280;4358;42.100;25.222;2023-02-15T04:18:09;101450.44;;;-0.03;100.00
8641;BME280;4358;42.100;25.222;2023-02-15T04:20:36;101455.66;;;-0.18;100.00
8641;BME280;4358;42.100;25.222;2023-02-15T04:23:21;101455.63;;;-0.19;100.00
8641;BME280;4358;42.100;25.222;2023-02-15T04:26:06;101454.81;;;-0.11;100.00
8641;BME280;4358;42.100;25.222;2023-02-15T04:28:33;101447.84;;;-0.07;100.00
8641;BME280;4358;42.100;25.222;2023-02-15T04:30:59;101458.25;;;-0.04;100.00
8641;BME280;4358;42.100;25.222;2023-02-15T04:33:26;101473.06;;;0.02;100.00
8641;BME280;4358;42.100;25.222;2023-02-15T04:35:53;101474.81;;;-0.01;100.00
8641;BME280;4358;42.100;25.222;2023-02-15T04:38:21;101478.28;;;-0.05;100.00
8641;BME280;4358;42.100;25.222;2023-02-15T04:40:49;101469.56;;;-0.13;100.00
8641;BME280;4358;42.100;25.222;2023-02-15T04:43:17;101468.69;;;-0.22;100.00
8641;BME280;4358;42.100;25.222;2023-02-15T04:45:47;101476.50;;;-0.21;100.00
8641;BME280;4358;42.100;25.222;2023-02-15T04:48:15;101478.22;;;-0.26;100.00
8641;BME280;4358;42.100;25.222;2023-02-15T04:50:42;101490.44;;;-0.19;100.00
8641;BME280;4358;42.100;25.222;2023-02-15T04:53:09;101499.16;;;-0.17;100.00
8641;BME280;4358;42.100;25.222;2023-02-15T04:55:38;101479.97;;;-0.32;100.00
8641;BME280;4358;42.100;25.222;2023-02-15T04:58:05;101506.94;;;-0.20;100.00
8641;BME280;4358;42.100;25.222;2023-02-15T05:00:32;101504.38;;;-0.17;100.00
8641;BME280;4358;42.100;25.222;2023-02-15T05:02:58;101513.03;;;-0.24;100.00
8641;BME280;4358;42.100;25.222;2023-02-15T05:05:25;101493.03;;;-0.29;100.00
8641;BME280;4358;42.100;25.222;2023-02-15T05:07:52;101488.72;;;-0.21;100.00
8641;BME280;4358;42.100;25.222;2023-02-15T05:10:19;101518.31;;;0.00;100.00
8641;BME280;4358;42.100;25.222;2023-02-15T05:12:47;101514.84;;;0.03;100.00
8641;BME280;4358;42.100;25.222;2023-02-15T05:15:14;101532.25;;;0.18;100.00
8641;BME280;4358;42.100;25.222;2023-02-15T05:17:41;101524.44;;;0.15;100.00
8641;BME280;4358;42.100;25.222;2023-02-15T05:20:09;101537.47;;;0.18;100.00
8641;BME280;4358;42.100;25.222;2023-02-15T05:22:36;101537.50;;;0.21;100.00
8641;BME280;4358;42.100;25.222;2023-02-15T05:25:03;101539.22;;;0.19;100.00
8641;BME280;4358;42.100;25.222;2023-02-15T05:27:48;101543.56;;;0.23;100.00
8641;BME280;4358;42.100;25.222;2023-02-15T05:30:33;101548.81;;;0.32;100.00
8641;BME280;4358;42.100;25.222;2023-02-15T05:33:00;101547.06;;;0.22;100.00
8641;BME280;4358;42.100;25.222;2023-02-15T05:35:27;101553.16;;;0.10;100.00
8641;BME280;4358;42.100;25.222;2023-02-15T05:37:53;101562.69;;;0.04;100.00
8641;BME280;4358;42.100;25.222;2023-02-15T05:40:20;101567.91;;;0.11;100.00
8641;BME280;4358;42.100;25.222;2023-02-15T05:42:48;101567.91;;;0.11;100.00
8641;BME280;4358;42.100;25.222;2023-02-15T05:45:15;101569.63;;;-0.03;100.00
8641;BME280;4358;42.100;25.222;2023-02-15T05:47:42;101574.84;;;-0.08;100.00
8641;BME280;4358;42.100;25.222;2023-02-15T05:50:10;101579.22;;;-0.07;100.00
8641;BME280;4358;42.100;25.222;2023-02-15T05:52:37;101566.09;;;-0.26;100.00
8641;BME280;4358;42.100;25.222;2023-02-15T05:55:05;101567.81;;;-0.28;100.00
8641;BME280;4358;42.100;25.222;2023-02-15T05:57:34;101574.81;;;-0.15;100.00
8641;BME280;4358;42.100;25.222;2023-02-15T06:00:03;101566.94;;;-0.29;100.00
8641;BME280;4358;42.100;25.222;2023-02-15T06:02:33;101572.25;;;-0.02;100.00
8641;BME280;4358;42.100;25.222;2023-02-15T06:05:00;101591.44;;;0.19;100.00
8641;BME280;4358;42.100;25.222;2023-02-15T06:07:27;101596.69;;;0.34;100.00
8641;BME280;4358;42.100;25.222;2023-02-15T06:09:54;101590.63;;;0.52;100.00
8641;BME280;4358;42.100;25.222;2023-02-15T06:12:21;101583.66;;;0.69;100.00
8641;BME280;4358;42.100;25.222;2023-02-15T06:14:48;101590.63;;;0.85;100.00
8641;BME280;4358;42.100;25.222;2023-02-15T06:17:16;101589.72;;;1.00;100.00
8641;BME280;4358;42.100;25.222;2023-02-15T06:19:43;101591.44;;;1.16;100.00
8641;BME280;4358;42.100;25.222;2023-02-15T06:22:10;101601.88;;;1.31;100.00
8641;BME280;4358;42.100;25.222;2023-02-15T06:24:39;101600.13;;;1.45;100.00
8641;BME280;4358;42.100;25.222;2023-02-15T06:27:08;101607.94;;;1.53;100.00
8641;BME280;4358;42.100;25.222;2023-02-15T06:29:34;101608.78;;;1.65;100.00
8641;BME280;4358;42.100;25.222;2023-02-15T06:32:01;101610.47;;;1.79;100.00
8641;BME280;4358;42.100;25.222;2023-02-15T06:34:30;101606.91;;;1.95;100.00
8641;BME280;4358;42.100;25.222;2023-02-15T06:36:56;101613.81;;;2.05;100.00
8641;BME280;4358;42.100;25.222;2023-02-15T06:39:23;101606.78;;;2.16;100.00
8641;BME280;4358;42.100;25.222;2023-02-15T06:41:50;101604.94;;;2.35;100.00
8641;BME280;4358;42.100;25.222;2023-02-15T06:44:17;101607.47;;;2.48;100.00
8641;BME280;4358;42.100;25.222;2023-02-15T06:46:44;101601.31;;;2.55;100.00
8641;BME280;4358;42.100;25.222;2023-02-15T06:49:11;101604.66;;;2.73;100.00
8641;BME280;4358;42.100;25.222;2023-02-15T06:51:39;101600.16;;;2.88;100.00
8641;BME280;4358;42.100;25.222;2023-02-15T06:54:06;101597.44;;;3.02;100.00
8641;BME280;4358;42.100;25.222;2023-02-15T06:56:33;101603.44;;;3.12;100.00
8641;BME280;4358;42.100;25.222;2023-02-15T06:59:00;101605.94;;;3.25;100.00
8641;BME280;4358;42.100;25.222;2023-02-15T07:01:26;101589.25;;;3.34;100.00
8641;BME280;4358;42.100;25.222;2023-02-15T07:03:53;101587.34;;;3.47;100.00
8641;BME280;4358;42.100;25.222;2023-02-15T07:06:20;101595.06;;;3.59;100.00
8641;BME280;4358;42.100;25.222;2023-02-15T07:08:48;101601.06;;;3.71;100.00
8641;BME280;4358;42.100;25.222;2023-02-15T07:11:15;101598.25;;;3.85;100.00
8641;BME280;4358;42.100;25.222;2023-02-15T07:13:59;101600.75;;;3.94;100.00
8641;BME280;4358;42.100;25.222;2023-02-15T07:16:26;101601.44;;;4.08;100.00
8641;BME280;4358;42.100;25.222;2023-02-15T07:18:53;101602.16;;;4.19;100.00
8641;BME280;4358;42.100;25.222;2023-02-15T07:21:20;101599.44;;;4.29;100.00
8641;BME280;4358;42.100;25.222;2023-02-15T07:23:48;101595.78;;;4.39;100.00
8641;BME280;4358;42.100;25.222;2023-02-15T07:26:15;101595.78;;;4.39;100.00
8641;BME280;4358;42.100;25.222;2023-02-15T07:28:42;101590.44;;;4.45;100.00
8641;BME280;4358;42.100;25.222;2023-02-15T07:31:08;101601.59;;;4.59;100.00
8641;BME280;4358;42.100;25.222;2023-02-15T07:33:35;101600.72;;;4.60;100.00
8641;BME280;4358;42.100;25.222;2023-02-15T07:36:03;101599.78;;;4.62;100.00
8641;BME280;4358;42.100;25.222;2023-02-15T07:38:32;101599.59;;;4.75;100.00
8641;BME280;4358;42.100;25.222;2023-02-15T07:41:02;101600.31;;;4.84;100.00
8641;BME280;4358;42.100;25.222;2023-02-15T07:43:32;101594.88;;;4.93;100.00
8641;BME280;4358;42.100;25.222;2023-02-15T07:45:59;101601.78;;;5.02;100.00
8641;BME280;4358;42.100;25.222;2023-02-15T07:48:26;101603.16;;;5.23;100.00
8641;BME280;4358;42.100;25.222;2023-02-15T07:50:53;101598.47;;;5.38;100.00
8641;BME280;4358;42.100;25.222;2023-02-15T07:53:20;101602.50;;;5.56;100.00
8641;BME280;4358;42.100;25.222;2023-02-15T07:55:47;101604.81;;;5.73;98.01
8641;BME280;4358;42.100;25.222;2023-02-15T07:58:15;101601.28;;;5.74;97.25
8641;BME280;4358;42.100;25.222;2023-02-15T08:00:42;101598.63;;;5.75;97.59
8641;BME280;4358;42.100;25.222;2023-02-15T08:03:24;101599.41;;;5.80;98.35
8641;BME280;4358;42.100;25.222;2023-02-15T08:05:56;101595.78;;;5.86;98.93
8641;BME280;4358;42.100;25.222;2023-02-15T08:08:23;101599.00;;;6.00;98.10
8641;BME280;4358;42.100;25.222;2023-02-15T08:11:00;101604.25;;;6.02;97.90
8641;BME280;4358;42.100;25.222;2023-02-15T08:13:48;101604.16;;;6.06;98.17
8641;BME280;4358;42.100;25.222;2023-02-15T08:16:30;101599.41;;;6.22;97.19
8641;BME280;4358;42.100;25.222;2023-02-15T08:18:58;101589.56;;;6.30;96.23
8641;BME280;4358;42.100;25.222;2023-02-15T08:21:27;101586.56;;;6.45;94.84
8641;BME280;4358;42.100;25.222;2023-02-15T08:23:54;101595.97;;;6.57;94.43
8641;BME280;4358;42.100;25.222;2023-02-15T08:26:22;101594.31;;;6.53;93.77
8641;BME280;4358;42.100;25.222;2023-02-15T08:28:51;101594.88;;;6.65;93.14
8641;BME280;4358;42.100;25.222;2023-02-15T08:31:18;101593.56;;;6.83;92.72
8641;BME280;4358;42.100;25.222;2023-02-15T08:33:47;101593.94;;;7.02;91.34
8641;BME280;4358;42.100;25.222;2023-02-15T08:36:16;101593.59;;;7.17;87.63
8641;BME280;4358;42.100;25.222;2023-02-15T08:38:43;101591.75;;;7.19;87.56
8641;BME280;4358;42.100;25.222;2023-02-15T08:41:12;101589.69;;;7.30;86.25
8641;BME280;4358;42.100;25.222;2023-02-15T08:43:39;101593.91;;;7.37;86.20
8641;BME280;4358;42.100;25.222;2023-02-15T08:46:10;101598.09;;;7.44;85.59
8641;BME280;4358;42.100;25.222;2023-02-15T08:48:38;101590.00;;;7.18;85.67
8641;BME280;4358;42.100;25.222;2023-02-15T08:51:07;101577.75;;;7.17;87.25
8641;BME280;4358;42.100;25.222;2023-02-15T08:53:36;101596.38;;;7.43;86.18
8641;BME280;4358;42.100;25.222;2023-02-15T08:56:03;101592.88;;;7.43;83.89
8641;BME280;4358;42.100;25.222;2023-02-15T08:58:30;101582.03;;;7.53;83.69
8641;BME280;4358;42.100;25.222;2023-02-15T09:00:57;101585.44;;;7.57;83.11
8641;BME280;4358;42.100;25.222;2023-02-15T09:03:25;101580.03;;;7.61;83.72
8641;BME280;4358;42.100;25.222;2023-02-15T09:05:57;101586.50;;;7.81;83.09
8641;BME280;4358;42.100;25.222;2023-02-15T09:08:25;101575.31;;;8.02;83.36
8641;BME280;4358;42.100;25.222;2023-02-15T09:10:52;101580.41;;;8.08;81.69
8641;BME280;4358;42.100;25.222;2023-02-15T09:13:18;101576.50;;;8.21;80.59
8641;BME280;4358;42.100;25.222;2023-02-15T09:15:45;101578.41;;;8.16;79.34
8641;BME280;4358;42.100;25.222;2023-02-15T09:18:12;101573.13;;;8.16;79.91
8641;BME280;4358;42.100;25.222;2023-02-15T09:20:44;101564.78;;;8.30;79.15
8641;BME280;4358;42.100;25.222;2023-02-15T09:23:11;101573.41;;;8.36;78.92
8641;BME280;4358;42.100;25.222;2023-02-15T09:25:38;101564.44;;;8.40;78.18
8641;BME280;4358;42.100;25.222;2023-02-15T09:28:04;101564.50;;;8.39;78.39
8641;BME280;4358;42.100;25.222;2023-02-15T09:30:31;101556.59;;;8.37;77.82
8641;BME280;4358;42.100;25.222;2023-02-15T09:32:58;101555.69;;;8.38;76.82
8641;BME280;4358;42.100;25.222;2023-02-15T09:35:25;101567.19;;;8.37;76.45
8641;BME280;4358;42.100;25.222;2023-02-15T09:37:53;101562.75;;;8.38;77.78
8641;BME280;4358;42.100;25.222;2023-02-15T09:40:20;101550.22;;;8.15;78.61
8641;BME280;4358;42.100;25.222;2023-02-15T09:43:10;101564.69;;;8.33;79.18
8641;BME280;4358;42.100;25.222;2023-02-15T09:45:56;101563.53;;;8.41;77.40
8641;BME280;4358;42.100;25.222;2023-02-15T09:48:39;101564.41;;;8.42;76.96
8641;BME280;4358;42.100;25.222;2023-02-15T09:54:22;101565.13;;;8.47;77.08
8641;BME280;4358;42.100;25.222;2023-02-15T09:56:57;101558.16;;;8.44;77.80
8641;BME280;4358;42.100;25.222;2023-02-15T09:59:34;101549.44;;;8.69;76.83
8641;BME280;4358;42.100;25.222;2023-02-15T10:02:20;101543.00;;;8.76;76.24
8641;BME280;4358;42.100;25.222;2023-02-15T10:04:58;101532.31;;;8.79;76.71
8641;BME280;4358;42.100;25.222;2023-02-15T10:10:30;101537.09;;;9.19;74.60
8641;BME280;4358;42.100;25.222;2023-02-15T10:13:09;101528.84;;;9.26;72.13
8641;BME280;4358;42.100;25.222;2023-02-15T10:15:51;101523.56;;;9.26;72.31
8641;BME280;4358;42.100;25.222;2023-02-15T10:18:35;101518.56;;;9.42;70.66
8641;BME280;4358;42.100;25.222;2023-02-15T10:21:11;101515.88;;;9.44;69.96
8641;BME280;4358;42.100;25.222;2023-02-15T10:23:50;101504.38;;;9.68;70.14
8641;BME280;4358;42.100;25.222;2023-02-15T10:26:27;101510.47;;;9.93;67.24
8641;BME280;4358;42.100;25.222;2023-02-15T10:29:02;101510.47;;;9.93;66.14
8641;BME280;4358;42.100;25.222;2023-02-15T10:31:36;101500.41;;;10.01;66.05
8641;BME280;4358;42.100;25.222;2023-02-15T10:34:14;101491.53;;;10.02;64.40
8641;BME280;4358;42.100;25.222;2023-02-15T10:37:00;101501.31;;;10.00;65.11
8641;BME280;4358;42.100;25.222;2023-02-15T10:39:40;101491.81;;;9.73;66.76
8641;BME280;4358;42.100;25.222;2023-02-15T10:42:18;101477.25;;;9.83;66.61
8641;BME280;4358;42.100;25.222;2023-02-15T10:44:59;101467.69;;;10.01;65.85
8641;BME280;4358;42.100;25.222;2023-02-15T10:47:41;101478.28;;;10.24;65.26
8641;BME280;4358;42.100;25.222;2023-02-15T10:50:23;101476.16;;;10.10;66.48
8641;BME280;4358;42.100;25.222;2023-02-15T10:53:01;101474.09;;;9.95;66.46
8641;BME280;4358;42.100;25.222;2023-02-15T10:55:44;101465.81;;;10.04;67.07
8641;BME280;4358;42.100;25.222;2023-02-15T10:58:25;101478.66;;;10.15;66.65
8641;BME280;4358;42.100;25.222;2023-02-15T11:00:56;101468.59;;;10.23;66.72
8641;BME280;4358;42.100;25.222;2023-02-15T11:03:36;101458.97;;;10.20;66.63
8641;BME280;4358;42.100;25.222;2023-02-15T11:06:09;101462.56;;;10.61;66.35
8641;BME280;4358;42.100;25.222;2023-02-15T11:08:41;101460.59;;;10.87;64.08
8641;BME280;4358;42.100;25.222;2023-02-15T11:11:13;101458.13;;;10.62;65.54
8641;BME280;4358;42.100;25.222;2023-02-15T11:13:47;101452.00;;;10.80;63.83
8641;BME280;4358;42.100;25.222;2023-02-15T11:16:17;101458.00;;;10.85;63.85
8641;BME280;4358;42.100;25.222;2023-02-15T11:18:50;101462.53;;;10.83;64.07
8641;BME280;4358;42.100;25.222;2023-02-15T11:21:22;101446.44;;;10.86;63.39
8641;BME280;4358;42.100;25.222;2023-02-15T11:23:51;101443.91;;;11.03;62.46
8641;BME280;4358;42.100;25.222;2023-02-15T11:26:21;101433.09;;;11.27;62.26
8641;BME280;4358;42.100;25.222;2023-02-15T11:28:58;101424.13;;;11.48;60.06
8641;BME280;4358;42.100;25.222;2023-02-15T11:31:30;101439.66;;;11.57;56.69
8641;BME280;4358;42.100;25.222;2023-02-15T11:34:06;101431.34;;;11.46;53.52
8641;BME280;4358;42.100;25.222;2023-02-15T11:36:40;101433.63;;;11.35;53.95
8641;BME280;4358;42.100;25.222;2023-02-15T11:39:11;101425.44;;;11.39;53.77
8641;BME280;4358;42.100;25.222;2023-02-15T11:41:43;101418.59;;;11.34;53.70
8641;BME280;4358;42.100;25.222;2023-02-15T11:44:16;101418.38;;;11.38;53.19
8641;BME280;4358;42.100;25.222;2023-02-15T11:46:44;101416.22;;;11.28;53.17
8641;BME280;4358;42.100;25.222;2023-02-15T11:49:21;101406.88;;;11.38;52.69
8641;BME280;4358;42.100;25.222;2023-02-15T11:51:49;101406.25;;;11.33;52.77
8641;BME280;4358;42.100;25.222;2023-02-15T11:54:17;101404.44;;;11.33;52.27
8641;BME280;4358;42.100;25.222;2023-02-15T11:56:45;101337.84;;;10.99;53.17
8641;BME280;4358;42.100;25.222;2023-02-15T11:59:18;101390.56;;;11.27;52.10
8641;BME280;4358;42.100;25.222;2023-02-15T12:01:48;101401.56;;;11.38;51.45
8641;BME280;4358;42.100;25.222;2023-02-15T12:04:20;101393.31;;;11.44;51.57
8641;BME280;4358;42.100;25.222;2023-02-15T12:06:52;101382.31;;;11.70;51.14
8641;BME280;4358;42.100;25.222;2023-02-15T12:09:27;101384.09;;;11.88;51.36
8641;BME280;4358;42.100;25.222;2023-02-15T12:12:19;101380.38;;;12.10;50.53
8641;BME280;4358;42.100;25.222;2023-02-15T12:14:49;101381.00;;;11.98;51.79
8641;BME280;4358;42.100;25.222;2023-02-15T12:17:17;101375.91;;;12.10;50.47
8641;BME280;4358;42.100;25.222;2023-02-15T12:19:44;101378.97;;;12.03;50.05
8641;BME280;4358;42.100;25.222;2023-02-15T12:22:22;101372.06;;;11.99;50.05
8641;BME280;4358;42.100;25.222;2023-02-15T12:24:52;101372.97;;;11.80;49.79
8641;BME280;4358;42.100;25.222;2023-02-15T12:27:20;101367.22;;;11.71;49.40
8641;BME280;4358;42.100;25.222;2023-02-15T12:29:51;101368.59;;;11.79;50.34
8641;BME280;4358;42.100;25.222;2023-02-15T12:32:22;101367.13;;;11.91;48.55
8641;BME280;4358;42.100;25.222;2023-02-15T12:34:51;101368.63;;;11.97;48.17
8641;BME280;4358;42.100;25.222;2023-02-15T12:37:24;101360.41;;;12.01;49.18
8641;BME280;4358;42.100;25.222;2023-02-15T12:39:54;101369.59;;;12.13;49.47
8641;BME280;4358;42.100;25.222;2023-02-15T12:42:22;101365.50;;;12.06;48.77
8641;BME280;4358;42.100;25.222;2023-02-15T12:44:57;101355.47;;;12.11;49.42
8641;BME280;4358;42.100;25.222;2023-02-15T12:47:25;101351.81;;;12.30;48.68
8641;BME280;4358;42.100;25.222;2023-02-15T12:50:08;101347.03;;;12.37;48.32
8641;BME280;4358;42.100;25.222;2023-02-15T12:52:42;101340.16;;;12.33;47.66
8641;BME280;4358;42.100;25.222;2023-02-15T12:55:18;101357.75;;;12.36;47.05
8641;BME280;4358;42.100;25.222;2023-02-15T12:57:46;101353.22;;;12.38;47.05
8641;BME280;4358;42.100;25.222;2023-02-15T13:00:28;101352.34;;;12.37;47.58
8641;BME280;4358;42.100;25.222;2023-02-15T13:02:58;101351.66;;;12.34;47.26
8641;BME280;4358;42.100;25.222;2023-02-15T13:05:30;101349.56;;;12.23;46.91
8641;BME280;4358;42.100;25.222;2023-02-15T13:08:00;101356.44;;;12.27;47.34
8641;BME280;4358;42.100;25.222;2023-02-15T13:10:29;101355.56;;;12.26;47.48
8641;BME280;4358;42.100;25.222;2023-02-15T13:12:57;101352.03;;;12.43;47.67
8641;BME280;4358;42.100;25.222;2023-02-15T13:15:31;101353.78;;;12.44;47.05
8641;BME280;4358;42.100;25.222;2023-02-15T13:18:00;101356.03;;;12.52;46.33
8641;BME280;4358;42.100;25.222;2023-02-15T13:20:28;101353.06;;;12.41;46.25
8641;BME280;4358;42.100;25.222;2023-02-15T13:22:58;101347.41;;;12.47;45.61
8641;BME280;4358;42.100;25.222;2023-02-15T13:25:28;101332.16;;;12.33;45.33
8641;BME280;4358;42.100;25.222;2023-02-15T13:28:01;101327.69;;;12.34;45.28
8641;BME280;4358;42.100;25.222;2023-02-15T13:30:34;101331.53;;;12.28;44.79
8641;BME280;4358;42.100;25.222;2023-02-15T13:33:03;101348.94;;;12.35;43.84
8641;BME280;4358;42.100;25.222;2023-02-15T13:35:39;101343.59;;;12.35;43.42